createdAt,value
2023-01-21T00:02:03.959Z,100389.97
2023-01-21T00:04:52.433Z,100380.63
2023-01-21T00:07:40.874Z,100396.72
2023-01-21T00:10:30.625Z,100390.81
2023-01-21T00:13:19.057Z,100390.78
2023-01-21T00:16:08.323Z,100398.41
2023-01-21T00:18:57.419Z,100397.59
2023-01-21T00:21:45.848Z,100400.13
2023-01-21T00:24:34.265Z,100403.50
2023-01-21T00:27:24.148Z,100401.81
2023-01-21T00:30:13.836Z,100410.28
2023-01-21T00:33:02.303Z,100406.06
2023-01-21T00:35:59.627Z,100411.97
2023-01-21T00:38:49.860Z,100408.56
2023-01-21T00:41:38.374Z,100411.97
2023-01-21T00:44:28.148Z,100417.03
2023-01-21T00:47:16.569Z,100422.97
2023-01-21T00:50:05.940Z,100428.91
2023-01-21T00:52:55.047Z,100429.75
2023-01-21T00:55:43.491Z,100428.06
2023-01-21T00:58:32.111Z,100436.56
2023-01-21T01:01:22.784Z,100443.34
2023-01-21T01:04:12.125Z,100449.25
2023-01-21T01:07:00.536Z,100454.34
2023-01-21T01:09:49.040Z,100452.66
2023-01-21T01:12:37.728Z,100455.22
2023-01-21T01:15:26.203Z,100461.13
2023-01-21T01:18:15.984Z,100466.22
2023-01-21T01:21:05.202Z,100471.31
2023-01-21T01:23:54.673Z,100473.84
2023-01-21T01:26:43.076Z,100469.59
2023-01-21T01:29:31.791Z,100476.34
2023-01-21T01:32:20.160Z,100483.97
2023-01-21T01:35:10.714Z,100483.13
2023-01-21T01:37:59.162Z,100480.56
2023-01-21T01:40:47.745Z,100488.22
2023-01-21T01:43:58.020Z,100487.38
2023-01-21T01:46:46.429Z,100499.25
2023-01-21T01:49:34.862Z,100497.56
2023-01-21T01:52:24.709Z,100499.25
2023-01-21T01:55:13.193Z,100505.19
2023-01-21T01:58:01.666Z,100500.13
2023-01-21T02:00:50.102Z,100500.13
2023-01-21T02:03:50.781Z,100500.13
2023-01-21T02:06:39.454Z,100504.38
2023-01-21T02:09:30.013Z,100505.25
2023-01-21T02:12:19.013Z,100505.25
2023-01-21T02:15:09.083Z,100510.31
2023-01-21T02:18:01.987Z,100515.41
2023-01-21T02:21:43.000Z,100512.88
2023-01-21T02:25:39.133Z,100517.94
2023-01-21T02:29:23.953Z,100512.00
2023-01-21T02:32:40.999Z,100517.94
2023-01-21T02:35:33.260Z,100523.03
2023-01-21T02:38:26.220Z,100535.72
2023-01-21T02:41:22.913Z,100539.94
2023-01-21T02:44:14.660Z,100536.53
2023-01-21T02:47:07.805Z,100540.75
2023-01-21T02:49:58.456Z,100546.66
2023-01-21T02:52:55.999Z,100536.50
2023-01-21T02:55:44.405Z,100543.25
2023-01-21T02:58:35.162Z,100551.72
2023-01-21T03:01:31.298Z,100550.00
2023-01-21T03:04:37.696Z,100543.19
2023-01-21T03:07:28.923Z,100556.72
2023-01-21T03:10:23.331Z,100560.97
2023-01-21T03:13:37.250Z,100559.25
2023-01-21T03:16:53.783Z,100564.31
2023-01-21T03:19:45.763Z,100566.84
2023-01-21T03:22:35.442Z,100566.84
2023-01-21T03:25:25.415Z,100572.78
2023-01-21T03:28:25.179Z,100564.28
2023-01-21T03:31:40.775Z,100576.16
2023-01-21T03:34:55.893Z,100586.31
2023-01-21T03:37:47.770Z,100585.47
2023-01-21T03:40:41.021Z,100578.69
2023-01-21T03:43:29.456Z,100573.59
2023-01-21T03:46:21.435Z,100582.06
2023-01-21T03:49:15.284Z,100591.38
2023-01-21T03:52:04.142Z,100588.81
2023-01-21T03:54:52.642Z,100591.34
2023-01-21T03:57:42.574Z,100595.59
2023-01-21T04:00:31.117Z,100589.69
2023-01-21T04:03:19.638Z,100598.97
2023-01-21T04:06:08.740Z,100604.91
2023-01-21T04:08:57.112Z,100603.19
2023-01-21T04:11:45.618Z,100604.91
2023-01-21T04:14:35.445Z,100605.75
2023-01-21T04:17:23.876Z,100617.63
2023-01-21T04:20:13.933Z,100621.03
2023-01-21T04:23:02.463Z,100610.84
2023-01-21T04:25:50.941Z,100615.06
2023-01-21T04:28:39.390Z,100611.66
2023-01-21T04:31:29.157Z,100624.38
2023-01-21T04:34:17.681Z,100626.03
2023-01-21T04:37:06.194Z,100628.53
2023-01-21T04:39:54.600Z,100624.25
2023-01-21T04:42:43.459Z,100630.97
2023-01-21T04:45:31.869Z,100636.84
2023-01-21T04:48:21.607Z,100641.84
2023-01-21T04:51:10.074Z,100648.56
2023-01-21T04:53:58.511Z,100650.22
2023-01-21T04:56:46.886Z,100654.41
2023-01-21T04:59:35.297Z,100648.44
2023-01-21T05:02:23.827Z,100656.81
2023-01-21T05:05:13.613Z,100656.78
2023-01-21T05:08:02.034Z,100659.22
2023-01-21T05:10:50.469Z,100664.22
2023-01-21T05:13:38.858Z,100667.53
2023-01-21T05:16:27.334Z,100669.13
2023-01-21T05:19:15.786Z,100669.16
2023-01-21T05:22:05.561Z,100673.34
2023-01-21T05:24:53.997Z,100674.13
2023-01-21T05:27:42.432Z,100688.44
2023-01-21T05:30:30.865Z,100680.81
2023-01-21T05:33:23.808Z,100682.44
2023-01-21T05:36:12.214Z,100690.00
2023-01-21T05:39:01.956Z,100696.78
2023-01-21T05:41:50.505Z,100700.09
2023-01-21T05:44:38.973Z,100707.72
2023-01-21T05:47:27.395Z,100707.66
2023-01-21T05:50:16.109Z,100712.72
2023-01-21T05:53:04.700Z,100713.53
2023-01-21T05:55:54.949Z,100721.97
2023-01-21T05:58:43.353Z,100722.75
2023-01-21T06:01:31.946Z,100727.75
2023-01-21T06:04:23.051Z,100724.31
2023-01-21T06:07:12.263Z,100737.75
2023-01-21T06:10:00.670Z,100736.84
2023-01-21T06:12:52.716Z,100731.72
2023-01-21T06:15:41.246Z,100743.47
2023-01-21T06:18:29.669Z,100737.50
2023-01-21T06:21:18.081Z,100747.63
2023-01-21T06:24:07.552Z,100746.75
2023-01-21T06:26:55.929Z,100749.25
2023-01-21T06:29:45.732Z,100757.72
2023-01-21T06:32:34.403Z,100755.97
2023-01-21T06:35:22.877Z,100772.91
2023-01-21T06:38:11.251Z,100781.31
2023-01-21T06:40:59.688Z,100788.88
2023-01-21T06:43:48.102Z,100791.38
2023-01-21T06:46:41.231Z,100799.78
2023-01-21T06:49:31.938Z,100800.56
2023-01-21T06:52:20.876Z,100804.72
2023-01-21T06:55:10.321Z,100803.84
2023-01-21T06:57:58.719Z,100800.38
2023-01-21T07:00:47.128Z,100802.81
2023-01-21T07:03:36.897Z,100809.41
2023-01-21T07:06:25.501Z,100812.59
2023-01-21T07:09:14.019Z,100821.75
2023-01-21T07:12:02.474Z,100818.22
2023-01-21T07:14:50.898Z,100815.66
2023-01-21T07:17:39.387Z,100819.91
2023-01-21T07:20:29.354Z,100827.50
2023-01-21T07:23:17.864Z,100825.84
2023-01-21T07:26:06.556Z,100819.91
2023-01-21T07:28:54.995Z,100829.22
2023-01-21T07:31:43.384Z,100830.91
2023-01-21T07:34:31.855Z,100832.56
2023-01-21T07:37:21.698Z,100839.34
2023-01-21T07:40:11.677Z,100836.81
2023-01-21T07:43:00.129Z,100841.09
2023-01-21T07:45:48.728Z,100842.00
2023-01-21T07:48:37.097Z,100851.31
2023-01-21T07:51:25.528Z,100849.66
2023-01-21T07:54:15.489Z,100851.44
2023-01-21T07:57:03.982Z,100852.31
2023-01-21T07:59:52.394Z,100857.34
2023-01-21T08:02:41.332Z,100859.03
2023-01-21T08:05:29.759Z,100863.34
2023-01-21T08:08:18.150Z,100865.22
2023-01-21T08:11:08.043Z,100863.72
2023-01-21T08:13:56.466Z,100861.34
2023-01-21T08:16:44.887Z,100860.59
2023-01-21T08:19:33.294Z,100866.59
2023-01-21T08:22:21.688Z,100865.06
2023-01-21T08:25:11.652Z,100858.44
2023-01-21T08:28:01.498Z,100871.22
2023-01-21T08:30:50.082Z,100867.94
2023-01-21T08:33:38.606Z,100871.50
2023-01-21T08:36:27.063Z,100873.38
2023-01-21T08:39:16.297Z,100860.94
2023-01-21T08:42:04.862Z,100867.06
2023-01-21T08:44:54.645Z,100874.13
2023-01-21T08:47:43.076Z,100875.19
2023-01-21T08:50:31.535Z,100879.59
2023-01-21T08:53:19.957Z,100886.47
2023-01-21T08:56:08.887Z,100885.72
2023-01-21T08:58:57.572Z,100885.81
2023-01-21T09:01:47.395Z,100881.66
2023-01-21T09:04:35.898Z,100888.47
2023-01-21T09:07:24.313Z,100889.41
2023-01-21T09:10:13.087Z,100896.28
2023-01-21T09:13:05.772Z,100901.38
2023-01-21T09:15:54.234Z,100905.53
2023-01-21T09:18:44.217Z,100904.63
2023-01-21T09:21:34.504Z,100912.34
2023-01-21T09:24:23.680Z,100906.44
2023-01-21T09:27:12.139Z,100917.41
2023-01-21T09:30:00.547Z,100911.50
2023-01-21T09:32:48.925Z,100914.06
2023-01-21T09:35:38.648Z,100915.81
2023-01-21T09:38:27.186Z,100921.84
2023-01-21T09:41:25.273Z,100920.28
2023-01-21T09:44:22.618Z,100916.03
2023-01-21T09:47:15.754Z,100918.59
2023-01-21T09:50:06.532Z,100927.81
2023-01-21T09:53:00.909Z,100927.69
2023-01-21T09:55:49.739Z,100930.09
2023-01-21T09:58:40.710Z,100928.28
2023-01-21T10:01:32.207Z,100933.22
2023-01-21T10:04:32.564Z,100933.22
2023-01-21T10:07:22.843Z,100931.59
2023-01-21T10:10:16.651Z,100931.72
2023-01-21T10:13:19.593Z,100929.44
2023-01-21T10:16:13.548Z,100925.50
2023-01-21T10:19:02.288Z,100923.22
2023-01-21T10:21:52.417Z,100914.94
2023-01-21T10:24:46.143Z,100926.03
2023-01-21T10:27:36.845Z,100921.81
2023-01-21T10:30:27.650Z,100919.28
2023-01-21T10:33:19.096Z,100916.72
2023-01-21T10:36:28.449Z,100916.75
2023-01-21T10:39:26.023Z,100916.75
2023-01-21T10:42:57.087Z,100913.47
2023-01-21T10:45:48.883Z,100906.81
2023-01-21T10:48:46.753Z,100917.91
2023-01-21T10:51:39.390Z,100911.94
2023-01-21T10:54:35.588Z,100915.28
2023-01-21T10:57:45.554Z,100914.41
2023-01-21T11:00:38.548Z,100912.72
2023-01-21T11:03:33.745Z,100921.28
2023-01-21T11:06:22.912Z,100912.78
2023-01-21T11:09:14.052Z,100916.16
2023-01-21T11:12:02.930Z,100919.56
2023-01-21T11:14:51.941Z,100915.28
2023-01-21T11:17:42.825Z,100911.88
2023-01-21T11:20:41.626Z,100919.50
2023-01-21T11:23:31.274Z,100924.63
2023-01-21T11:26:22.314Z,100928.03
2023-01-21T11:29:14.001Z,100925.50
2023-01-21T11:32:04.707Z,100914.50
2023-01-21T11:35:05.494Z,100921.28
2023-01-21T11:37:53.907Z,100917.03
2023-01-21T11:40:42.347Z,100917.91
2023-01-21T11:43:41.607Z,100921.25
2023-01-21T11:46:35.016Z,100926.38
2023-01-21T11:49:29.858Z,100920.41
2023-01-21T11:52:22.698Z,100918.69
2023-01-21T11:55:22.594Z,100923.78
2023-01-21T11:58:19.346Z,100924.66
2023-01-21T12:01:12.098Z,100920.38
2023-01-21T12:04:00.967Z,100922.94
2023-01-21T12:06:51.579Z,100919.53
2023-01-21T12:09:41.419Z,100911.91
2023-01-21T12:12:38.692Z,100918.66
2023-01-21T12:15:38.090Z,100912.72
2023-01-21T12:18:33.324Z,100907.59
2023-01-21T12:21:26.671Z,100914.41
2023-01-21T12:24:24.072Z,100909.31
2023-01-21T12:27:20.357Z,100917.78
2023-01-21T12:30:18.017Z,100910.16
2023-01-21T12:33:13.696Z,100916.97
2023-01-21T12:36:04.772Z,100912.69
2023-01-21T12:39:10.577Z,100915.28
2023-01-21T12:42:06.878Z,100921.22
2023-01-21T12:44:58.362Z,100925.47
2023-01-21T12:47:51.502Z,100918.69
2023-01-21T12:50:41.307Z,100911.88
2023-01-21T12:53:34.745Z,100917.81
2023-01-21T12:56:28.742Z,100915.31
2023-01-21T12:59:20.827Z,100917.84
2023-01-21T13:02:19.695Z,100915.31
2023-01-21T13:05:12.550Z,100917.88
2023-01-21T13:08:06.926Z,100912.78
2023-01-21T13:10:58.514Z,100922.97
2023-01-21T13:13:54.090Z,100930.59
2023-01-21T13:16:44.586Z,100922.94
2023-01-21T13:19:34.328Z,100916.16
2023-01-21T13:22:32.822Z,100911.94
2023-01-21T13:25:28.685Z,100917.03
2023-01-21T13:28:20.740Z,100928.03
2023-01-21T13:31:14.915Z,100927.19
2023-01-21T13:34:07.351Z,100917.00
2023-01-21T13:37:06.850Z,100921.22
2023-01-21T13:40:16.048Z,100921.22
2023-01-21T13:43:12.415Z,100919.53
2023-01-21T13:46:11.206Z,100916.97
2023-01-21T13:49:33.184Z,100922.06
2023-01-21T13:52:25.448Z,100927.16
2023-01-21T13:55:27.278Z,100924.56
2023-01-21T13:58:16.476Z,100923.69
2023-01-21T14:01:06.956Z,100922.00
2023-01-21T14:03:57.701Z,100928.81
2023-01-21T14:06:49.750Z,100916.94
2023-01-21T14:09:42.099Z,100934.75
2023-01-21T14:12:44.762Z,100927.97
2023-01-21T14:15:43.836Z,100929.69
2023-01-21T14:18:50.826Z,100927.13
2023-01-21T14:21:52.011Z,100929.72
2023-01-21T14:25:14.387Z,100925.47
2023-01-21T14:28:09.957Z,100926.31
2023-01-21T14:31:02.485Z,100933.13
2023-01-21T14:33:54.098Z,100929.75
2023-01-21T14:36:46.630Z,100928.03
2023-01-21T14:39:43.022Z,100934.81
2023-01-21T14:42:46.208Z,100928.88
2023-01-21T14:45:53.204Z,100943.31
2023-01-21T14:48:42.566Z,100935.66
2023-01-21T14:51:31.971Z,100936.50
2023-01-21T14:54:23.921Z,100942.47
2023-01-21T14:57:28.842Z,100933.94
2023-01-21T15:00:24.153Z,100939.06
2023-01-21T15:03:16.492Z,100936.50
2023-01-21T15:06:09.535Z,100935.66
2023-01-21T15:08:58.861Z,100938.22
2023-01-21T15:11:47.304Z,100939.91
2023-01-21T15:14:36.838Z,100939.91
2023-01-21T15:17:46.722Z,100933.94
2023-01-21T15:20:50.666Z,100944.13
2023-01-21T15:23:40.368Z,100943.31
2023-01-21T15:26:33.037Z,100943.31
2023-01-21T15:29:34.060Z,100954.34
2023-01-21T15:32:28.679Z,100955.19
2023-01-21T15:35:23.001Z,100956.03
2023-01-21T15:38:13.331Z,100946.66
2023-01-21T15:41:02.974Z,100950.03
2023-01-21T15:43:59.610Z,100955.16
2023-01-21T15:46:53.544Z,100942.38
2023-01-21T15:49:53.080Z,100950.84
2023-01-21T15:52:53.519Z,100953.38
2023-01-21T15:55:58.139Z,100950.81
2023-01-21T15:58:53.707Z,100949.94
2023-01-21T16:01:42.980Z,100949.91
2023-01-21T16:04:35.448Z,100959.22
2023-01-21T16:07:31.484Z,100961.69
2023-01-21T16:10:24.929Z,100965.03
2023-01-21T16:13:17.511Z,100964.97
2023-01-21T16:16:14.690Z,100958.97
2023-01-21T16:19:05.075Z,100964.00
2023-01-21T16:21:55.957Z,100966.56
2023-01-21T16:24:47.390Z,100969.91
2023-01-21T16:27:37.376Z,100969.00
2023-01-21T16:30:28.442Z,100965.59
2023-01-21T16:33:17.974Z,100986.75
2023-01-21T16:36:08.162Z,100981.66
2023-01-21T16:38:56.565Z,100978.28
2023-01-21T16:41:45.028Z,100979.97
2023-01-21T16:44:35.318Z,100983.31
2023-01-21T16:47:26.367Z,100995.19
2023-01-21T16:50:19.482Z,100983.31
2023-01-21T16:53:08.528Z,100985.84
2023-01-21T16:55:58.085Z,100993.47
2023-01-21T16:58:48.178Z,100988.41
2023-01-21T17:01:38.001Z,100988.41
2023-01-21T17:04:26.693Z,100985.88
2023-01-21T17:07:15.899Z,100993.53
2023-01-21T17:10:06.741Z,101004.56
2023-01-21T17:12:56.639Z,100995.22
2023-01-21T17:15:49.345Z,101001.16
2023-01-21T17:18:41.538Z,100998.63
2023-01-21T17:21:33.811Z,100981.66
2023-01-21T17:24:25.276Z,101003.66
2023-01-21T17:27:18.562Z,100995.19
2023-01-21T17:30:29.932Z,100989.22
2023-01-21T17:33:30.636Z,100979.03
2023-01-21T17:36:20.515Z,100984.09
2023-01-21T17:39:09.936Z,100993.47
2023-01-21T17:41:58.364Z,100998.50
2023-01-21T17:44:46.913Z,100985.78
2023-01-21T17:47:59.059Z,100981.56
2023-01-21T17:50:47.144Z,101003.59
2023-01-21T17:53:42.607Z,101000.22
2023-01-21T17:56:40.597Z,101003.59
2023-01-21T17:59:37.543Z,100999.34
2023-01-21T18:02:26.014Z,101003.56
2023-01-21T18:05:15.007Z,101005.22
2023-01-21T18:08:04.198Z,101005.25
2023-01-21T18:10:54.054Z,101003.59
2023-01-21T18:13:42.618Z,101001.91
2023-01-21T18:16:31.559Z,100998.50
2023-01-21T18:19:29.311Z,101002.81
2023-01-21T18:22:22.535Z,101000.25
2023-01-21T18:25:12.740Z,101000.25
2023-01-21T18:28:02.466Z,101001.09
2023-01-21T18:30:51.336Z,100996.00
2023-01-21T18:33:39.821Z,100992.63
2023-01-21T18:36:28.255Z,100993.47
2023-01-21T18:39:18.767Z,100998.50
2023-01-21T18:42:07.302Z,101006.16
2023-01-21T18:44:57.097Z,101007.84
2023-01-21T18:47:45.734Z,101010.38
2023-01-21T18:53:09.221Z,101004.44
2023-01-21T18:55:57.632Z,101002.75
2023-01-21T18:58:46.061Z,101001.91
2023-01-21T19:01:35.919Z,101014.56
2023-01-21T19:04:24.447Z,101002.69
2023-01-21T19:07:15.237Z,101012.88
2023-01-21T19:10:03.683Z,101004.41
2023-01-21T19:12:52.355Z,101009.47
2023-01-21T19:15:41.719Z,101013.75
2023-01-21T19:18:31.569Z,101014.63
2023-01-21T19:21:20.047Z,101010.41
2023-01-21T19:24:11.895Z,101007.03
2023-01-21T19:27:00.724Z,101003.66
2023-01-21T19:29:49.124Z,101007.06
2023-01-21T19:32:37.516Z,101007.94
2023-01-21T19:35:31.988Z,101002.03
2023-01-21T19:38:21.698Z,100993.53
2023-01-21T19:41:10.104Z,100996.91
2023-01-21T19:43:58.560Z,100995.22
2023-01-21T19:46:46.964Z,100991.81
2023-01-21T19:49:35.326Z,100994.34
2023-01-21T19:52:25.069Z,100998.59
2023-01-21T19:55:15.037Z,100993.47
2023-01-21T19:58:05.150Z,100991.78
2023-01-21T20:00:53.988Z,101008.75
2023-01-21T20:03:54.614Z,101001.09
2023-01-21T20:06:47.959Z,101004.53
2023-01-21T20:09:37.717Z,101006.22
2023-01-21T20:12:26.126Z,101007.06
2023-01-21T20:15:14.763Z,101001.13
2023-01-21T20:18:03.394Z,100993.50
2023-01-21T20:20:52.484Z,100999.44
2023-01-21T20:23:40.850Z,100984.13
2023-01-21T20:26:30.638Z,100984.13
2023-01-21T20:29:21.098Z,100975.66
2023-01-21T20:32:10.659Z,100969.75
2023-01-21T20:34:59.044Z,100969.78
2023-01-21T20:37:49.060Z,100975.69
2023-01-21T20:40:37.466Z,100984.13
2023-01-21T20:43:28.132Z,100989.19
2023-01-21T20:46:18.574Z,100978.94
2023-01-21T20:49:06.976Z,100988.28
2023-01-21T20:51:55.381Z,100984.88
2023-01-21T20:54:43.798Z,100986.53
2023-01-21T20:57:32.236Z,100986.50
2023-01-21T21:00:26.228Z,100976.31
2023-01-21T21:03:16.492Z,100986.50
2023-01-21T21:06:06.978Z,100978.00
2023-01-21T21:08:55.615Z,100977.94
2023-01-21T21:11:44.041Z,100977.09
2023-01-21T21:14:32.454Z,100970.28
2023-01-21T21:17:22.492Z,100969.38
2023-01-21T21:20:19.070Z,100968.50
2023-01-21T21:23:07.955Z,100977.78
2023-01-21T21:25:56.370Z,100970.94
2023-01-21T21:28:45.648Z,100965.88
2023-01-21T21:31:34.109Z,100970.06
2023-01-21T21:34:24.034Z,100964.97
2023-01-21T21:37:13.631Z,100959.84
2023-01-21T21:40:02.264Z,100957.25
2023-01-21T21:43:08.546Z,100960.63
2023-01-21T21:46:14.454Z,100953.00
2023-01-21T21:49:02.975Z,100956.34
2023-01-21T21:51:52.823Z,100949.63
2023-01-21T21:54:41.172Z,100951.34
2023-01-21T21:57:29.606Z,100954.72
2023-01-21T22:00:20.081Z,100957.34
2023-01-21T22:03:08.541Z,100955.63
2023-01-21T22:06:01.622Z,100950.50
2023-01-21T22:08:53.604Z,100950.50
2023-01-21T22:11:42.020Z,100953.03
2023-01-21T22:14:30.474Z,100946.28
2023-01-21T22:17:18.883Z,100942.88
2023-01-21T22:20:08.709Z,100942.88
2023-01-21T22:22:57.120Z,100931.91
2023-01-21T22:25:46.894Z,100937.03
2023-01-21T22:28:35.798Z,100936.22
2023-01-21T22:31:25.473Z,100929.44
2023-01-21T22:34:14.046Z,100929.44
2023-01-21T22:37:02.423Z,100929.44
2023-01-21T22:39:50.843Z,100920.94
2023-01-21T22:42:40.621Z,100918.44
2023-01-21T22:45:29.023Z,100916.72
2023-01-21T22:48:17.992Z,100924.34
2023-01-21T22:51:06.936Z,100920.09
2023-01-21T22:53:55.371Z,100915.81
2023-01-21T22:56:53.513Z,100914.09
2023-01-21T22:59:43.236Z,100903.03
2023-01-21T23:02:31.697Z,100902.19
2023-01-21T23:05:20.799Z,100896.28
2023-01-21T23:08:09.527Z,100892.03
2023-01-21T23:11:01.406Z,100892.88
2023-01-21T23:13:50.109Z,100896.31
2023-01-21T23:16:39.886Z,100896.31
2023-01-21T23:19:28.479Z,100895.44
2023-01-21T23:22:16.939Z,100888.69
2023-01-21T23:25:06.140Z,100881.91
2023-01-21T23:27:54.584Z,100884.47
2023-01-21T23:30:43.198Z,100883.63
2023-01-21T23:33:33.803Z,100874.34
2023-01-21T23:36:22.214Z,100871.78
2023-01-21T23:39:11.991Z,100876.03
2023-01-21T23:42:00.412Z,100876.06
2023-01-21T23:44:48.853Z,100874.38
2023-01-21T23:47:37.247Z,100882.06
2023-01-21T23:50:27.068Z,100874.47
2023-01-21T23:53:15.490Z,100870.22
2023-01-21T23:56:05.694Z,100873.66
2023-01-21T23:58:54.242Z,100869.44
